Time;durP1;ratioP1;P1;durP2;ratioP2;P2;SDS_P1;SDS_P2;PMS_P1;PMS_P2;Temp;Humidity;BMP_temperature;BMP_pressure;BME280_temperature;BME280_humidity;BME280_pressure;Samples;Min_cycle;Max_cycle;Signal;HPM_P1;HPM_P2
2024/01/14 00:00:57;;;;;;;10.20;8.40;;;;;;;-1.15;100.00;98145.60;109478;1251;66447;-77
2024/01/14 00:03:44;;;;;;;12.00;9.70;;;;;;;-1.13;100.00;98141.17;109450;1251;62228;-76
2024/01/14 00:06:10;;;;;;;12.30;9.60;;;;;;;-1.12;100.00;98133.49;109501;1251;65057;-77
2024/01/14 00:08:37;;;;;;;12.30;10.40;;;;;;;-1.11;100.00;98130.33;109403;1251;58540;-77
2024/01/14 00:11:04;;;;;;;14.00;10.80;;;;;;;-1.11;100.00;98128.41;109521;1251;58050;-75
2024/01/14 00:13:30;;;;;;;10.50;8.30;;;;;;;-1.09;100.00;98126.96;109534;1251;64985;-77
2024/01/14 00:15:57;;;;;;;11.80;10.00;;;;;;;-1.08;100.00;98122.39;109486;1251;60169;-76
2024/01/14 00:18:24;;;;;;;11.90;8.40;;;;;;;-1.08;100.00;98121.51;109502;1251;65043;-76
2024/01/14 00:20:50;;;;;;;10.10;8.90;;;;;;;-1.08;100.00;98115.56;109482;1251;58662;-77
2024/01/14 00:23:17;;;;;;;12.60;9.90;;;;;;;-1.08;100.00;98112.60;109477;1251;58286;-77
2024/01/14 00:25:43;;;;;;;11.00;9.40;;;;;;;-1.08;100.00;98112.77;109354;1251;65088;-77
2024/01/14 00:28:10;;;;;;;14.80;10.60;;;;;;;-1.08;100.00;98113.29;109476;1251;61114;-76
2024/01/14 00:30:36;;;;;;;11.80;9.40;;;;;;;-1.07;100.00;98111.72;109483;1251;65152;-77
2024/01/14 00:33:03;;;;;;;13.50;9.80;;;;;;;-1.06;100.00;98113.08;108722;1251;1002951;-76
2024/01/14 00:35:30;;;;;;;11.80;10.20;;;;;;;-1.05;100.00;98113.73;109462;1251;58310;-78
2024/01/14 00:37:59;;;;;;;13.60;10.40;;;;;;;-1.04;100.00;98112.85;109349;1251;65288;-77
2024/01/14 00:40:26;;;;;;;13.90;10.20;;;;;;;-1.04;100.00;98110.19;109501;1251;60277;-76
2024/01/14 00:42:53;;;;;;;12.70;10.20;;;;;;;-1.03;100.00;98104.23;109124;1251;64015;-76
2024/01/14 00:45:19;;;;;;;11.90;9.70;;;;;;;-1.02;100.00;98099.86;108722;1251;1002708;-77
2024/01/14 00:47:46;;;;;;;13.00;9.70;;;;;;;-1.01;100.00;98092.86;109494;1251;58457;-77
2024/01/14 00:50:13;;;;;;;13.30;9.30;;;;;;;-1.01;100.00;98087.24;109497;1251;66156;-76
2024/01/14 00:52:39;;;;;;;11.30;9.40;;;;;;;-1.00;100.00;98084.80;109523;1251;61472;-76
2024/01/14 00:55:08;;;;;;;11.20;9.10;;;;;;;-1.00;100.00;98080.63;109458;1251;65100;-77
2024/01/14 00:57:35;;;;;;;11.30;9.50;;;;;;;-1.01;100.00;98076.45;109432;1252;58713;-78
2024/01/14 01:00:02;;;;;;;14.00;10.20;;;;;;;-1.00;100.00;98071.89;109399;1251;58270;-77
2024/01/14 01:02:29;;;;;;;12.50;8.90;;;;;;;-1.00;100.00;98061.27;109519;1251;74772;-77
2024/01/14 01:04:56;;;;;;;14.60;9.60;;;;;;;-0.99;100.00;98056.70;109313;1251;60055;-76
2024/01/14 01:07:22;;;;;;;14.60;11.10;;;;;;;-0.99;100.00;98051.98;109502;1251;65230;-77
2024/01/14 01:09:49;;;;;;;12.70;9.30;;;;;;;-0.98;100.00;98048.63;109465;1251;58131;-75
2024/01/14 01:12:15;;;;;;;12.90;9.90;;;;;;;-0.97;100.00;98048.27;109481;1251;58290;-76
2024/01/14 01:14:42;;;;;;;10.60;9.40;;;;;;;-0.97;100.00;98050.36;109482;1251;66237;-77
2024/01/14 01:17:09;;;;;;;12.10;9.60;;;;;;;-0.97;100.00;98045.30;109511;1251;60104;-74
2024/01/14 01:19:35;;;;;;;12.50;10.70;;;;;;;-0.97;100.00;98048.44;109359;1251;62744;-77
2024/01/14 01:22:02;;;;;;;10.40;9.30;;;;;;;-0.98;100.00;98045.65;109490;1251;58159;-78
2024/01/14 01:24:29;;;;;;;13.50;10.50;;;;;;;-0.98;100.00;98044.42;109066;1257;58169;-77
2024/01/14 01:26:56;;;;;;;14.00;10.70;;;;;;;-0.97;100.00;98038.15;109064;1255;66552;-77
2024/01/14 01:29:39;;;;;;;12.10;9.70;;;;;;;-0.96;100.00;98038.98;109059;1256;61031;-77
2024/01/14 01:32:05;;;;;;;11.20;9.30;;;;;;;-0.95;100.00;98035.80;109046;1255;65143;-76
2024/01/14 01:34:32;;;;;;;13.40;9.90;;;;;;;-0.95;100.00;98028.48;109024;1256;58748;-77
2024/01/14 01:36:58;;;;;;;11.50;10.30;;;;;;;-0.95;100.00;98028.83;109070;1255;58075;-76
2024/01/14 01:39:25;;;;;;;12.10;10.00;;;;;;;-0.95;100.00;98022.55;109026;1255;65599;-76
2024/01/14 01:41:52;;;;;;;13.20;10.50;;;;;;;-0.95;100.00;98022.38;109068;1255;61207;-76
2024/01/14 01:44:19;;;;;;;10.40;9.20;;;;;;;-0.95;100.00;98014.52;109045;1255;65272;-76
2024/01/14 01:46:47;;;;;;;12.10;10.20;;;;;;;-0.95;100.00;98012.61;108952;1255;58282;-77
2024/01/14 01:49:14;;;;;;;11.90;10.70;;;;;;;-0.95;100.00;98005.30;109091;1255;58235;-77
2024/01/14 01:51:44;;;;;;;10.00;8.80;;;;;;;-0.95;100.00;98004.23;108993;1255;66371;-77
2024/01/14 01:54:11;;;;;;;11.70;9.90;;;;;;;-0.96;100.00;98002.85;109020;1256;61194;-76
2024/01/14 01:56:38;;;;;;;12.50;10.70;;;;;;;-0.95;100.00;97992.03;109314;1252;73318;-77
2024/01/14 01:59:06;;;;;;;11.00;9.80;;;;;;;-0.95;100.00;97990.46;109403;1252;58205;-77
2024/01/14 02:01:33;;;;;;;11.40;9.80;;;;;;;-0.94;100.00;97985.20;109116;1252;58208;-76
2024/01/14 02:04:01;;;;;;;11.90;9.50;;;;;;;-0.94;100.00;97981.70;109347;1253;66627;-77
2024/01/14 02:06:28;;;;;;;10.80;8.70;;;;;;;-0.93;100.00;97980.64;109333;1253;60015;-76
2024/01/14 02:08:56;;;;;;;12.50;9.50;;;;;;;-0.93;100.00;97975.56;109369;1252;64126;-76
2024/01/14 02:11:22;;;;;;;10.30;9.20;;;;;;;-0.93;100.00;97968.93;109351;1252;58360;-77
2024/01/14 02:13:49;;;;;;;11.30;9.00;;;;;;;-0.93;100.00;97966.32;109343;1252;58106;-77
2024/01/14 02:16:16;;;;;;;12.50;9.90;;;;;;;-0.93;100.00;97960.58;109243;1252;65356;-77
2024/01/14 02:18:42;;;;;;;12.80;9.30;;;;;;;-0.93;100.00;97956.21;109304;1252;61117;-76
2024/01/14 02:21:14;;;;;;;12.70;9.40;;;;;;;-0.92;100.00;97954.13;109374;1252;65222;-77
2024/01/14 02:23:46;;;;;;;10.40;9.00;;;;;;;-0.93;100.00;97948.38;109278;1252;58205;-78
2024/01/14 02:26:12;;;;;;;11.10;9.50;;;;;;;-0.93;100.00;97946.61;108989;1252;58159;-77
2024/01/14 02:28:39;;;;;;;9.80;8.40;;;;;;;-0.92;100.00;97946.77;109385;1253;66156;-76
2024/01/14 02:31:07;;;;;;;10.60;8.90;;;;;;;-0.92;100.00;97941.19;109319;1253;60114;-78
2024/01/14 02:33:33;;;;;;;11.30;9.60;;;;;;;-0.92;100.00;97936.48;109385;1252;64018;-76
2024/01/14 02:36:00;;;;;;;10.70;8.90;;;;;;;-0.91;100.00;97926.69;109366;1252;58120;-75
2024/01/14 02:38:27;;;;;;;12.50;9.00;;;;;;;-0.90;100.00;97926.48;109359;1252;58150;-77
2024/01/14 02:40:54;;;;;;;8.90;7.40;;;;;;;-0.90;100.00;97935.70;109371;1252;66348;-77
2024/01/14 02:43:21;;;;;;;10.80;8.90;;;;;;;-0.89;100.00;97922.95;109380;1252;61179;-77
2024/01/14 02:45:47;;;;;;;12.20;9.30;;;;;;;-0.89;100.00;97917.02;109460;1251;64008;-77
2024/01/14 02:48:14;;;;;;;9.90;8.00;;;;;;;-0.89;100.00;97915.61;109325;1251;59107;-77
2024/01/14 02:50:40;;;;;;;10.90;8.70;;;;;;;-0.88;100.00;97913.67;109467;1251;59081;-77
2024/01/14 02:53:07;;;;;;;10.30;8.50;;;;;;;-0.87;100.00;97913.81;109486;1251;67156;-77
2024/01/14 02:55:34;;;;;;;13.30;10.00;;;;;;;-0.86;100.00;97911.19;109534;1251;59283;-78
2024/01/14 02:58:00;;;;;;;10.30;9.10;;;;;;;-0.86;100.00;97907.14;109489;1251;64240;-76
2024/01/14 03:00:30;;;;;;;11.80;9.00;;;;;;;-0.85;100.00;97901.16;109446;1251;59237;-77
2024/01/14 03:02:57;;;;;;;11.80;8.60;;;;;;;-0.84;100.00;97898.54;109510;1251;58980;-77
2024/01/14 03:05:23;;;;;;;11.40;8.90;;;;;;;-0.84;100.00;97898.36;109498;1251;65803;-78
2024/01/14 03:07:50;;;;;;;13.20;9.40;;;;;;;-0.85;100.00;97895.95;109503;1251;61078;-78
2024/01/14 03:10:16;;;;;;;10.00;8.90;;;;;;;-0.85;100.00;97887.08;109514;1251;63927;-76
2024/01/14 03:12:43;;;;;;;11.10;8.90;;;;;;;-0.86;100.00;97885.50;109445;1251;58942;-77
2024/01/14 03:15:10;;;;;;;9.70;8.40;;;;;;;-0.86;100.00;97885.02;109253;1251;59102;-78
2024/01/14 03:17:36;;;;;;;9.50;8.40;;;;;;;-0.86;100.00;97885.19;109342;1251;66024;-77
2024/01/14 03:20:03;;;;;;;9.80;8.10;;;;;;;-0.87;100.00;97875.98;109489;1251;61081;-77
2024/01/14 03:22:30;;;;;;;10.30;8.90;;;;;;;-0.87;100.00;97875.11;109471;1251;65055;-77
2024/01/14 03:24:56;;;;;;;11.10;9.80;;;;;;;-0.87;100.00;97870.90;108690;1251;1003324;-78
2024/01/14 03:27:23;;;;;;;12.30;9.00;;;;;;;-0.88;100.00;97865.38;109135;1251;59267;-76
2024/01/14 03:29:49;;;;;;;10.00;8.30;;;;;;;-0.91;100.00;97863.21;109497;1251;67487;-76
2024/01/14 03:32:16;;;;;;;9.20;8.00;;;;;;;-0.94;100.00;97861.78;109486;1251;60044;-77
2024/01/14 03:34:43;;;;;;;9.40;8.30;;;;;;;-0.96;100.00;97863.06;109236;1252;64137;-77
2024/01/14 03:37:09;;;;;;;11.20;9.20;;;;;;;-0.96;100.00;97867.98;109428;1252;58950;-77
2024/01/14 03:39:36;;;;;;;10.80;9.10;;;;;;;-0.96;100.00;97866.89;109538;1252;59114;-77
2024/01/14 03:42:02;;;;;;;11.90;9.40;;;;;;;-0.95;100.00;97857.61;109436;1252;66947;-78
2024/01/14 03:44:29;;;;;;;11.50;9.20;;;;;;;-0.95;100.00;97853.09;109460;1252;61136;-76
2024/01/14 03:46:56;;;;;;;10.90;8.60;;;;;;;-0.95;100.00;97848.91;108699;1252;1002453;-77
2024/01/14 03:49:22;;;;;;;13.20;9.60;;;;;;;-0.94;100.00;97852.38;107971;1252;1002295;-78
2024/01/14 03:51:49;;;;;;;11.90;9.60;;;;;;;-0.94;100.00;97854.77;109496;1252;59045;-78
2024/01/14 03:54:15;;;;;;;11.80;8.70;;;;;;;-0.92;100.00;97849.86;109288;1255;64854;-77
2024/01/14 03:56:42;;;;;;;11.00;8.40;;;;;;;-0.92;100.00;97835.52;109449;1252;61242;-77
2024/01/14 03:59:08;;;;;;;10.40;9.00;;;;;;;-0.91;100.00;97835.83;109412;1252;64008;-78
2024/01/14 04:01:35;;;;;;;10.80;8.80;;;;;;;-0.90;100.00;97831.25;109483;1252;59333;-77
2024/01/14 04:04:02;;;;;;;11.80;9.90;;;;;;;-0.90;100.00;97828.84;109465;1252;59097;-77
2024/01/14 04:06:29;;;;;;;10.30;8.10;;;;;;;-0.90;100.00;97833.34;108711;1252;1002171;-77
2024/01/14 04:08:55;;;;;;;12.90;9.20;;;;;;;-0.89;100.00;97833.65;109441;1252;61149;-78
2024/01/14 04:11:22;;;;;;;11.00;8.60;;;;;;;-0.86;100.00;97842.48;109450;1252;65037;-77
2024/01/14 04:13:49;;;;;;;11.60;8.90;;;;;;;-0.84;100.00;97842.73;109291;1252;59001;-76
2024/01/14 04:16:15;;;;;;;11.30;10.10;;;;;;;-0.82;100.00;97841.94;109395;1253;59082;-76
2024/01/14 04:18:42;;;;;;;12.20;9.80;;;;;;;-0.79;100.00;97840.27;109488;1252;66987;-76
2024/01/14 04:21:19;;;;;;;10.90;8.90;;;;;;;-0.78;100.00;97838.48;109488;1252;61240;-76
2024/01/14 04:23:46;;;;;;;11.20;8.10;;;;;;;-0.75;100.00;97833.66;109175;1253;65096;-77
2024/01/14 04:26:12;;;;;;;9.50;8.20;;;;;;;-0.72;100.00;97833.00;109516;1252;59171;-77
2024/01/14 04:28:39;;;;;;;11.70;8.90;;;;;;;-0.71;100.00;97834.52;109282;1252;59379;-77
2024/01/14 04:31:05;;;;;;;10.80;8.50;;;;;;;-0.69;100.00;97827.45;109439;1252;66150;-77
2024/01/14 04:33:32;;;;;;;9.50;8.10;;;;;;;-0.67;100.00;97819.52;109155;1252;61207;-75
2024/01/14 04:35:58;;;;;;;10.10;9.00;;;;;;;-0.65;100.00;97819.47;109485;1252;64087;-77
2024/01/14 04:38:25;;;;;;;7.70;6.20;;;;;;;-0.68;100.00;97810.33;109466;1252;58977;-78
2024/01/14 04:40:52;;;;;;;9.60;8.30;;;;;;;-0.73;100.00;97806.03;109545;1252;59086;-77
2024/01/14 04:43:18;;;;;;;11.20;8.20;;;;;;;-0.80;100.00;97807.36;109497;1252;66220;-75
2024/01/14 04:45:45;;;;;;;11.10;8.60;;;;;;;-0.85;100.00;97811.59;109470;1252;61144;-76
2024/01/14 04:48:12;;;;;;;10.10;8.90;;;;;;;-0.88;100.00;97808.52;109478;1252;64610;-77
2024/01/14 04:50:39;;;;;;;9.50;6.80;;;;;;;-0.87;100.00;97807.09;109482;1252;59042;-77
2024/01/14 04:53:06;;;;;;;10.20;8.50;;;;;;;-0.84;100.00;97804.70;109487;1252;58942;-77
2024/01/14 04:55:33;;;;;;;9.70;7.60;;;;;;;-0.81;100.00;97809.83;109448;1252;67315;-77
2024/01/14 04:57:59;;;;;;;13.60;9.30;;;;;;;-0.79;100.00;97805.91;109433;1252;59988;-76
2024/01/14 05:00:26;;;;;;;10.50;7.50;;;;;;;-0.76;100.00;97806.16;109405;1252;64948;-79
2024/01/14 05:02:52;;;;;;;9.80;7.60;;;;;;;-0.77;100.00;97805.99;109464;1252;59042;-76
2024/01/14 05:05:19;;;;;;;11.70;9.10;;;;;;;-0.80;100.00;97802.48;109503;1252;59038;-76
2024/01/14 05:07:46;;;;;;;10.60;9.40;;;;;;;-0.83;100.00;97802.95;109428;1253;67250;-77
2024/01/14 05:10:12;;;;;;;12.10;9.60;;;;;;;-0.87;100.00;97797.49;109451;1252;61160;-77
2024/01/14 05:12:39;;;;;;;8.80;7.60;;;;;;;-0.91;100.00;97795.72;109510;1252;64036;-78
2024/01/14 05:15:06;;;;;;;11.80;8.60;;;;;;;-0.93;100.00;97789.02;109498;1252;58920;-77
2024/01/14 05:17:32;;;;;;;11.00;9.60;;;;;;;-0.94;100.00;97792.89;109469;1252;58981;-78
2024/01/14 05:19:59;;;;;;;12.20;9.20;;;;;;;-0.95;100.00;97789.27;109459;1252;65893;-77
2024/01/14 05:22:26;;;;;;;11.10;8.50;;;;;;;-0.95;100.00;97788.94;109505;1252;60179;-78
2024/01/14 05:24:52;;;;;;;13.40;8.60;;;;;;;-0.96;100.00;97783.59;109464;1252;63866;-78
2024/01/14 05:27:19;;;;;;;10.70;9.10;;;;;;;-0.98;100.00;97786.63;109465;1252;59288;-77
2024/01/14 05:29:46;;;;;;;12.10;10.00;;;;;;;-1.01;100.00;97788.33;109477;1252;59054;-77
2024/01/14 05:32:16;;;;;;;14.30;11.30;;;;;;;-1.03;100.00;97792.41;109540;1252;67017;-77
2024/01/14 05:34:44;;;;;;;12.40;10.50;;;;;;;-1.05;100.00;97797.16;109465;1252;60109;-76
2024/01/14 05:37:11;;;;;;;13.50;10.30;;;;;;;-1.05;100.00;97797.71;109311;1253;65207;-76
2024/01/14 05:39:38;;;;;;;12.30;9.20;;;;;;;-1.04;100.00;97804.81;109486;1252;59124;-77
2024/01/14 05:42:05;;;;;;;13.00;8.40;;;;;;;-1.03;100.00;97813.13;109460;1253;59074;-79
2024/01/14 05:44:32;;;;;;;12.40;10.10;;;;;;;-1.00;100.00;97813.38;108720;1252;1002416;-77
2024/01/14 05:46:58;;;;;;;12.20;8.40;;;;;;;-0.99;100.00;97814.89;107906;1252;1002837;-77
2024/01/14 05:49:25;;;;;;;12.80;8.90;;;;;;;-0.99;100.00;97804.46;109487;1252;63985;-76
2024/01/14 05:51:51;;;;;;;11.90;9.90;;;;;;;-1.01;100.00;97801.04;109430;1252;58867;-77
2024/01/14 05:54:18;;;;;;;15.40;11.40;;;;;;;-1.04;100.00;97802.55;109440;1252;58900;-77
2024/01/14 05:56:45;;;;;;;13.50;11.20;;;;;;;-1.07;100.00;97800.23;109461;1252;67113;-77
2024/01/14 05:59:12;;;;;;;15.30;11.70;;;;;;;-1.08;100.00;97799.23;109320;1253;60878;-77
2024/01/14 06:01:38;;;;;;;13.80;12.30;;;;;;;-1.08;100.00;97788.41;109296;1253;64387;-76
2024/01/14 06:04:05;;;;;;;15.60;11.90;;;;;;;-1.08;100.00;97784.58;109469;1253;59026;-78
2024/01/14 06:06:32;;;;;;;14.90;12.10;;;;;;;-1.08;100.00;97785.42;109494;1252;59049;-77
2024/01/14 06:08:58;;;;;;;16.30;11.10;;;;;;;-1.07;100.00;97783.14;109471;1252;75221;-77
2024/01/14 06:11:25;;;;;;;17.00;12.10;;;;;;;-1.05;100.00;97788.48;109523;1252;60281;-77
2024/01/14 06:13:51;;;;;;;15.80;13.10;;;;;;;-1.04;100.00;97786.01;109468;1252;63911;-76
2024/01/14 06:16:18;;;;;;;13.70;11.60;;;;;;;-1.03;100.00;97777.77;109460;1253;58983;-76
2024/01/14 06:18:45;;;;;;;13.00;11.20;;;;;;;-1.02;100.00;97775.09;109504;1252;59041;-74
2024/01/14 06:21:11;;;;;;;16.70;12.70;;;;;;;-1.00;100.00;97771.36;109537;1252;65937;-76
2024/01/14 06:23:38;;;;;;;15.50;12.20;;;;;;;-0.99;100.00;97769.04;109313;1253;59906;-76
2024/01/14 06:26:04;;;;;;;15.90;11.90;;;;;;;-0.97;100.00;97766.18;109481;1253;65024;-76
2024/01/14 06:28:31;;;;;;;12.90;10.00;;;;;;;-0.96;100.00;97764.05;109454;1253;59360;-77
2024/01/14 06:30:58;;;;;;;12.70;9.80;;;;;;;-0.94;100.00;97761.68;109476;1252;59128;-77
2024/01/14 06:33:24;;;;;;;14.50;10.60;;;;;;;-0.92;100.00;97754.80;109548;1252;66786;-77
2024/01/14 06:35:51;;;;;;;18.80;13.00;;;;;;;-0.90;100.00;97755.94;109524;1252;60236;-77
2024/01/14 06:38:17;;;;;;;21.00;14.90;;;;;;;-0.88;100.00;97762.31;109480;1252;64045;-77
2024/01/14 06:40:44;;;;;;;25.20;17.00;;;;;;;-0.86;100.00;97768.36;109463;1252;58994;-77
2024/01/14 06:43:10;;;;;;;26.70;18.00;;;;;;;-0.84;100.00;97767.77;109489;1253;59024;-77
2024/01/14 06:45:37;;;;;;;16.40;11.90;;;;;;;-0.83;100.00;97768.40;109442;1252;67164;-77
2024/01/14 06:48:04;;;;;;;14.00;10.50;;;;;;;-0.81;100.00;97774.77;109197;1253;60074;-77
2024/01/14 06:50:31;;;;;;;15.40;12.40;;;;;;;-0.79;100.00;97776.10;109187;1253;64187;-78
2024/01/14 06:52:57;;;;;;;13.60;10.80;;;;;;;-0.79;100.00;97772.09;109456;1252;59130;-76
2024/01/14 06:55:24;;;;;;;14.70;11.50;;;;;;;-0.81;100.00;97775.99;109509;1252;58968;-75
2024/01/14 06:57:51;;;;;;;16.20;12.80;;;;;;;-0.84;100.00;97777.70;109481;1252;66957;-76
2024/01/14 07:00:18;;;;;;;15.40;12.00;;;;;;;-0.88;100.00;97776.11;109460;1252;60064;-76
2024/01/14 07:02:46;;;;;;;16.70;13.20;;;;;;;-0.90;100.00;97778.27;109461;1253;64346;-76
2024/01/14 07:05:13;;;;;;;18.50;14.80;;;;;;;-0.92;100.00;97779.55;109473;1252;59034;-76
2024/01/14 07:07:40;;;;;;;16.20;12.70;;;;;;;-0.93;100.00;97781.86;109247;1251;58962;-76
2024/01/14 07:10:06;;;;;;;18.50;13.70;;;;;;;-0.95;100.00;97781.23;108737;1253;1002474;-77
2024/01/14 07:12:34;;;;;;;16.90;12.20;;;;;;;-0.95;100.00;97777.61;109536;1252;69838;-77
2024/01/14 07:15:01;;;;;;;12.80;10.00;;;;;;;-0.95;100.00;97775.15;109477;1252;64012;-76
2024/01/14 07:17:28;;;;;;;14.60;10.60;;;;;;;-0.93;100.00;97774.38;109482;1252;59011;-77
2024/01/14 07:19:54;;;;;;;21.20;15.00;;;;;;;-0.92;100.00;97780.27;109534;1253;59009;-76
2024/01/14 07:22:21;;;;;;;17.90;12.50;;;;;;;-0.90;100.00;97775.12;109478;1253;66943;-76
2024/01/14 07:24:47;;;;;;;20.20;15.10;;;;;;;-0.86;100.00;97768.34;109204;1252;60759;-76
2024/01/14 07:27:14;;;;;;;15.90;12.10;;;;;;;-0.80;100.00;97769.52;109474;1253;63763;-76
2024/01/14 07:29:40;;;;;;;16.80;13.20;;;;;;;-0.73;100.00;97764.85;109496;1252;59002;-75
2024/01/14 07:32:07;;;;;;;16.30;12.00;;;;;;;-0.64;100.00;97754.00;109491;1253;60365;-76
2024/01/14 07:34:35;;;;;;;18.30;14.10;;;;;;;-0.56;100.00;97754.39;109477;1252;75299;-77
2024/01/14 07:37:03;;;;;;;17.40;14.10;;;;;;;-0.51;100.00;97754.52;109525;1252;60101;-76
2024/01/14 07:39:29;;;;;;;15.70;12.90;;;;;;;-0.48;100.00;97755.78;109161;1253;65556;-75
2024/01/14 07:41:56;;;;;;;17.90;12.60;;;;;;;-0.45;100.00;97756.89;109478;1253;58979;-76
2024/01/14 07:44:22;;;;;;;15.70;11.50;;;;;;;-0.44;100.00;97757.37;109539;1252;59038;-74
2024/01/14 07:46:49;;;;;;;14.70;11.70;;;;;;;-0.41;100.00;97762.48;109501;1252;67386;-75
2024/01/14 07:49:16;;;;;;;16.00;11.50;;;;;;;-0.36;100.00;97760.48;109490;1253;60955;-73
2024/01/14 07:51:42;;;;;;;15.20;12.70;;;;;;;-0.29;100.00;97764.77;109485;1253;65088;-74
2024/01/14 07:54:09;;;;;;;13.50;10.30;;;;;;;-0.26;100.00;97759.21;109508;1252;59051;-75
2024/01/14 07:56:35;;;;;;;13.10;11.00;;;;;;;-0.21;100.00;97764.05;109489;1253;59038;-74
2024/01/14 07:59:02;;;;;;;19.90;12.30;;;;;;;-0.15;100.00;97761.89;109508;1252;67390;-75
2024/01/14 08:01:30;;;;;;;15.40;12.20;;;;;;;-0.11;100.00;97759.42;109480;1252;61059;-74
2024/01/14 08:03:56;;;;;;;11.10;9.40;;;;;;;-0.08;100.00;97762.45;109509;1252;63821;-77
2024/01/14 08:06:24;;;;;;;13.30;11.60;;;;;;;-0.08;100.00;97760.52;109493;1252;58947;-75
2024/01/14 08:08:50;;;;;;;13.00;10.00;;;;;;;-0.09;100.00;97757.77;109461;1251;58929;-74
2024/01/14 08:11:17;;;;;;;13.20;9.70;;;;;;;-0.12;100.00;97757.89;109490;1252;66951;-74
2024/01/14 08:13:44;;;;;;;14.80;10.70;;;;;;;-0.12;100.00;97762.79;109267;1256;60135;-74
2024/01/14 08:16:10;;;;;;;13.30;10.60;;;;;;;-0.08;100.00;97765.94;109481;1252;62782;-77
2024/01/14 08:18:37;;;;;;;12.10;9.70;;;;;;;-0.07;100.00;97770.77;109267;1253;58999;-75
2024/01/14 08:21:10;;;;;;;13.30;10.60;;;;;;;-0.07;100.00;97773.53;109502;1252;58982;-75
2024/01/14 08:23:37;;;;;;;14.90;11.20;;;;;;;-0.04;100.00;97770.98;109245;1253;67197;-74
2024/01/14 08:26:04;;;;;;;13.90;10.80;;;;;;;0.01;100.00;97777.93;109417;1252;60453;-75
2024/01/14 08:28:32;;;;;;;14.80;10.30;;;;;;;0.04;100.00;97778.70;109472;1253;64942;-74
2024/01/14 08:30:59;;;;;;;10.20;8.40;;;;;;;0.10;100.00;97777.02;109499;1252;59215;-75
2024/01/14 08:33:27;;;;;;;13.50;10.10;;;;;;;0.15;100.00;97775.73;109496;1252;58921;-75
2024/01/14 08:35:57;;;;;;;14.00;11.20;;;;;;;0.21;100.00;97775.80;109306;1253;67003;-75
2024/01/14 08:38:26;;;;;;;13.50;9.60;;;;;;;0.23;100.00;97773.29;109535;1252;59065;-74
2024/01/14 08:40:53;;;;;;;10.70;9.30;;;;;;;0.23;100.00;97778.34;109477;1253;64787;-76
2024/01/14 08:43:20;;;;;;;13.30;10.60;;;;;;;0.24;100.00;97777.79;109464;1253;58995;-76
2024/01/14 08:45:46;;;;;;;12.10;9.70;;;;;;;0.23;100.00;97775.72;109519;1253;59045;-75
2024/01/14 08:48:15;;;;;;;14.90;11.10;;;;;;;0.25;100.00;97774.59;109497;1252;67446;-75
2024/01/14 08:50:41;;;;;;;12.40;10.50;;;;;;;0.28;100.00;97781.27;109507;1252;60238;-75
2024/01/14 08:53:08;;;;;;;11.90;9.60;;;;;;;0.30;100.00;97781.02;109475;1253;64021;-75
2024/01/14 08:55:34;;;;;;;11.60;9.80;;;;;;;0.31;100.00;97783.76;109458;1252;59044;-74
2024/01/14 08:58:01;;;;;;;14.20;10.60;;;;;;;0.35;100.00;97773.99;109453;1253;59041;-75
2024/01/14 09:00:28;;;;;;;14.40;10.30;;;;;;;0.40;100.00;97770.25;109480;1253;66947;-75
2024/01/14 09:02:55;;;;;;;11.40;9.80;;;;;;;0.45;100.00;97776.45;109508;1253;61087;-76
2024/01/14 09:05:22;;;;;;;13.90;9.90;;;;;;;0.53;100.00;97780.13;109489;1252;65098;-74
2024/01/14 09:07:49;;;;;;;11.30;9.00;;;;;;;0.62;100.00;97781.62;109454;1253;59044;-75
2024/01/14 09:10:15;;;;;;;11.60;9.30;;;;;;;0.69;100.00;97779.23;109522;1253;59036;-74
2024/01/14 09:12:42;;;;;;;14.00;9.50;;;;;;;0.69;100.00;97780.29;105711;1252;1003117;-74
2024/01/14 09:15:08;;;;;;;11.60;9.40;;;;;;;0.64;100.00;97781.57;109454;1253;59007;-75
2024/01/14 09:17:35;;;;;;;14.00;11.00;;;;;;;0.61;100.00;97783.07;109491;1253;64205;-74
2024/01/14 09:20:02;;;;;;;11.20;9.00;;;;;;;0.64;100.00;97787.16;109489;1252;58997;-74
2024/01/14 09:22:28;;;;;;;12.10;9.50;;;;;;;0.73;100.00;97787.07;109492;1252;59020;-75
2024/01/14 09:24:55;;;;;;;10.60;9.00;;;;;;;0.84;100.00;97783.04;109467;1252;66130;-75
2024/01/14 09:27:22;;;;;;;9.90;8.00;;;;;;;0.95;100.00;97786.91;109264;1253;60164;-75
2024/01/14 09:29:49;;;;;;;11.20;8.70;;;;;;;1.00;100.00;97790.16;109168;1253;65219;-75
2024/01/14 09:32:15;;;;;;;10.20;8.10;;;;;;;1.05;100.00;97792.37;109537;1251;59000;-74
2024/01/14 09:34:42;;;;;;;11.00;8.20;;;;;;;1.12;100.00;97786.48;109505;1252;58873;-74
2024/01/14 09:37:08;;;;;;;10.80;8.60;;;;;;;1.17;100.00;97787.64;109517;1252;66185;-74
2024/01/14 09:39:35;;;;;;;13.00;10.00;;;;;;;1.21;100.00;97791.77;109481;1252;60143;-74
2024/01/14 09:42:15;;;;;;;11.10;8.40;;;;;;;1.24;100.00;97793.01;109488;1253;65071;-74
2024/01/14 09:44:41;;;;;;;11.30;8.90;;;;;;;1.28;100.00;97792.84;109429;1253;59438;-74
2024/01/14 09:47:10;;;;;;;10.20;8.70;;;;;;;1.35;100.00;97796.54;109513;1253;59150;-74
2024/01/14 09:49:37;;;;;;;11.80;9.40;;;;;;;1.39;100.00;97795.81;109526;1253;66460;-74
2024/01/14 09:52:05;;;;;;;10.10;7.70;;;;;;;1.45;100.00;97797.77;109510;1252;61039;-75
2024/01/14 09:54:32;;;;;;;10.70;9.10;;;;;;;1.50;100.00;97799.60;109474;1253;64054;-74
2024/01/14 09:57:05;;;;;;;14.90;10.30;;;;;;;1.57;100.00;97796.83;109493;1253;59030;-75
2024/01/14 09:59:34;;;;;;;11.50;9.60;;;;;;;1.64;100.00;97797.55;109413;1253;119136;-75
2024/01/14 10:02:01;;;;;;;15.00;10.20;;;;;;;1.68;100.00;97793.11;109291;1252;67083;-75
2024/01/14 10:04:28;;;;;;;13.20;10.20;;;;;;;1.68;100.00;97798.05;109519;1251;60179;-75
2024/01/14 10:06:56;;;;;;;11.30;8.80;;;;;;;1.62;100.00;97795.89;109481;1251;64057;-74
2024/01/14 10:09:24;;;;;;;10.10;7.80;;;;;;;1.62;100.00;97792.21;109452;1251;59045;-76
2024/01/14 10:11:50;;;;;;;11.10;9.90;;;;;;;1.53;100.00;97796.14;108766;1251;1002481;-74
2024/01/14 10:14:17;;;;;;;10.60;8.40;;;;;;;1.44;100.00;97793.30;109501;1251;67110;-74
2024/01/14 10:16:44;;;;;;;11.60;9.00;;;;;;;1.42;100.00;97791.45;109484;1251;60126;-76
2024/01/14 10:19:11;;;;;;;12.60;9.80;;;;;;;1.46;100.00;97793.75;109483;1251;64162;-75
2024/01/14 10:21:37;;;;;;;12.00;9.10;;;;;;;1.50;100.00;97786.71;109496;1251;58957;-76
2024/01/14 10:24:04;;;;;;;10.40;8.80;;;;;;;1.50;100.00;97787.71;109485;1251;59017;-75
2024/01/14 10:26:31;;;;;;;12.10;9.80;;;;;;;1.49;100.00;97789.52;109515;1251;65986;-75
2024/01/14 10:29:03;;;;;;;12.60;9.40;;;;;;;1.51;100.00;97784.16;109495;1251;60990;-76
2024/01/14 10:31:31;;;;;;;11.40;9.00;;;;;;;1.58;100.00;97783.52;109060;1251;64764;-77
2024/01/14 10:33:59;;;;;;;12.10;9.50;;;;;;;1.65;100.00;97781.41;109486;1251;59017;-75
2024/01/14 10:36:28;;;;;;;12.00;9.30;;;;;;;1.69;100.00;97788.55;109511;1251;59199;-75
2024/01/14 10:38:57;;;;;;;11.60;9.10;;;;;;;1.73;100.00;97786.04;109363;1251;66003;-76
2024/01/14 10:41:24;;;;;;;14.10;10.20;;;;;;;1.69;100.00;97788.70;109459;1251;60156;-75
2024/01/14 10:43:51;;;;;;;14.00;10.20;;;;;;;1.69;100.00;97787.49;109457;1251;64013;-75
2024/01/14 10:46:19;;;;;;;11.70;8.80;;;;;;;1.67;100.00;97784.26;109451;1251;59059;-75
2024/01/14 10:48:52;;;;;;;12.00;9.30;;;;;;;1.66;100.00;97785.71;109492;1251;58985;-75
2024/01/14 10:51:20;;;;;;;10.80;8.70;;;;;;;1.69;100.00;97782.27;109469;1251;66118;-76
2024/01/14 10:54:04;;;;;;;11.00;9.20;;;;;;;1.78;100.00;97769.02;109460;1251;61239;-76
2024/01/14 10:56:36;;;;;;;12.00;9.70;;;;;;;1.93;100.00;97759.98;109499;1251;64098;-75
2024/01/14 10:59:04;;;;;;;12.60;10.00;;;;;;;2.07;100.00;97753.48;109464;1252;59024;-76
2024/01/14 11:01:36;;;;;;;10.00;8.10;;;;;;;2.12;100.00;97749.21;109495;1251;58927;-76
2024/01/14 11:04:04;;;;;;;11.10;9.30;;;;;;;2.12;100.00;97753.23;109495;1251;67035;-76
2024/01/14 11:06:32;;;;;;;11.40;8.70;;;;;;;2.16;100.00;97751.96;109538;1251;61067;-73